createdAt,value
2019-03-13T00:00:19.310Z,995.96
2019-03-13T00:01:19.289Z,995.90
2019-03-13T00:02:19.353Z,995.88
2019-03-13T00:03:19.262Z,995.96
2019-03-13T00:04:19.339Z,995.96
2019-03-13T00:05:19.246Z,995.98
2019-03-13T00:06:19.250Z,995.97
2019-03-13T00:07:19.231Z,995.94
2019-03-13T00:08:19.262Z,995.98
2019-03-13T00:09:19.199Z,996.07
2019-03-13T00:10:20.300Z,996.05
2019-03-13T00:11:19.176Z,995.93
2019-03-13T00:12:21.263Z,995.90
2019-03-13T00:13:19.152Z,996.13
2019-03-13T00:14:20.234Z,996.09
2019-03-13T00:15:19.134Z,996.02
2019-03-13T00:16:20.161Z,995.97
2019-03-13T00:17:19.123Z,996.12
2019-03-13T00:18:19.128Z,996.08
2019-03-13T00:19:19.088Z,996.12
2019-03-13T00:20:19.141Z,996.14
2019-03-13T00:21:19.067Z,996.15
2019-03-13T00:22:19.191Z,996.10
2019-03-13T00:23:19.050Z,996.12
2019-03-13T00:24:19.065Z,996.25
2019-03-13T00:25:19.023Z,996.28
2019-03-13T00:26:19.083Z,996.18
2019-03-13T00:27:19.016Z,996.25
2019-03-13T00:28:19.095Z,996.16
2019-03-13T00:29:18.981Z,996.16
2019-03-13T00:30:19.003Z,996.25
2019-03-13T00:31:18.960Z,996.16
2019-03-13T00:32:19.047Z,996.22
2019-03-13T00:33:18.938Z,996.26
2019-03-13T00:34:19.034Z,996.24
2019-03-13T00:35:18.918Z,996.15
2019-03-13T00:36:18.942Z,996.23
2019-03-13T00:37:18.911Z,996.33
2019-03-13T00:38:18.956Z,996.30
2019-03-13T00:39:18.875Z,996.29
2019-03-13T00:40:18.970Z,996.37
2019-03-13T00:41:18.855Z,996.39
2019-03-13T00:42:18.911Z,996.39
2019-03-13T00:43:18.830Z,996.36
2019-03-13T00:44:18.896Z,996.38
2019-03-13T00:45:18.809Z,996.34
2019-03-13T00:46:18.908Z,996.34
2019-03-13T00:47:18.787Z,996.40
2019-03-13T00:48:18.849Z,996.37
2019-03-13T00:49:18.766Z,996.46
2019-03-13T00:50:18.833Z,996.45
2019-03-13T00:51:18.745Z,996.40
2019-03-13T00:52:18.847Z,996.35
2019-03-13T00:53:18.734Z,996.43
2019-03-13T00:54:18.758Z,996.40
2019-03-13T00:55:18.701Z,996.42
2019-03-13T00:56:19.797Z,996.29
2019-03-13T00:57:18.680Z,996.34
2019-03-13T00:58:25.177Z,996.39
2019-03-13T00:59:18.665Z,996.35
2019-03-13T01:00:25.659Z,996.18
2019-03-13T01:01:18.637Z,996.44
2019-03-13T01:02:20.658Z,996.38
2019-03-13T01:03:18.628Z,996.45
2019-03-13T01:04:18.622Z,996.46
2019-03-13T01:05:18.602Z,996.42
2019-03-13T01:06:18.637Z,996.41
2019-03-13T01:07:18.647Z,996.29
2019-03-13T01:08:18.681Z,996.46
2019-03-13T01:09:18.552Z,996.43
2019-03-13T01:10:18.561Z,996.47
2019-03-13T01:11:18.534Z,996.43
2019-03-13T01:12:18.575Z,996.30
2019-03-13T01:13:18.519Z,996.40
2019-03-13T01:14:18.589Z,996.45
2019-03-13T01:15:18.492Z,996.38
2019-03-13T01:16:18.500Z,996.39
2019-03-13T01:17:18.475Z,996.39
2019-03-13T01:18:18.542Z,996.38
2019-03-13T01:19:18.445Z,996.42
2019-03-13T01:20:18.528Z,996.46
2019-03-13T01:21:18.421Z,996.47
2019-03-13T01:22:18.439Z,996.37
2019-03-13T01:23:18.415Z,996.45
2019-03-13T01:24:18.452Z,996.41
2019-03-13T01:25:18.378Z,996.49
2019-03-13T01:26:18.467Z,996.51
2019-03-13T01:27:18.356Z,996.55
2019-03-13T01:28:18.407Z,996.54
2019-03-13T01:29:18.335Z,996.50
2019-03-13T01:30:18.396Z,996.40
2019-03-13T01:31:18.315Z,996.52
2019-03-13T01:32:18.405Z,996.48
2019-03-13T01:33:18.303Z,996.45
2019-03-13T01:34:18.316Z,996.32
2019-03-13T01:35:18.270Z,996.41
2019-03-13T01:36:18.331Z,996.39
2019-03-13T01:37:18.249Z,996.27
2019-03-13T01:38:18.272Z,996.54
2019-03-13T01:39:18.228Z,996.44
2019-03-13T01:40:18.254Z,996.50
2019-03-13T01:41:18.211Z,996.42
2019-03-13T01:42:18.268Z,996.50
2019-03-13T01:43:18.195Z,996.43
2019-03-13T01:44:18.285Z,996.44
2019-03-13T01:45:18.163Z,996.44
2019-03-13T01:46:18.194Z,996.50
2019-03-13T01:47:18.142Z,996.41
2019-03-13T01:48:19.165Z,996.48
2019-03-13T01:49:18.119Z,996.42
2019-03-13T01:50:19.143Z,996.39
2019-03-13T01:51:18.104Z,996.41
2019-03-13T01:52:18.136Z,996.38
2019-03-13T01:53:18.089Z,996.38
2019-03-13T01:54:18.146Z,996.34
2019-03-13T01:55:18.060Z,996.40
2019-03-13T01:56:18.162Z,996.45
2019-03-13T01:57:18.040Z,996.38
2019-03-13T01:58:18.106Z,996.37
2019-03-13T01:59:18.014Z,996.39
2019-03-13T02:00:18.085Z,996.26
2019-03-13T02:01:17.993Z,996.36
2019-03-13T02:02:17.996Z,996.40
2019-03-13T02:03:17.984Z,996.43
2019-03-13T02:04:18.010Z,996.39
2019-03-13T02:05:17.949Z,996.46
2019-03-13T02:06:18.024Z,996.43
2019-03-13T02:07:17.927Z,996.45
2019-03-13T02:08:17.970Z,996.40
2019-03-13T02:09:17.907Z,996.31
2019-03-13T02:10:17.950Z,996.38
2019-03-13T02:11:17.883Z,996.36
2019-03-13T02:12:17.962Z,996.36
2019-03-13T02:13:17.866Z,996.40
2019-03-13T02:14:17.908Z,996.31
2019-03-13T02:15:17.843Z,996.36
2019-03-13T02:16:17.888Z,996.43
2019-03-13T02:17:17.820Z,996.29
2019-03-13T02:18:17.901Z,996.44
2019-03-13T02:19:17.811Z,996.43
2019-03-13T02:20:17.813Z,996.31
2019-03-13T02:21:17.781Z,996.30
2019-03-13T02:22:17.828Z,996.32
2019-03-13T02:23:17.754Z,996.27
2019-03-13T02:24:17.768Z,996.25
2019-03-13T02:25:17.735Z,996.30
2019-03-13T02:26:17.753Z,996.29
2019-03-13T02:27:17.719Z,996.25
2019-03-13T02:28:17.769Z,996.20
2019-03-13T02:29:17.701Z,996.23
2019-03-13T02:30:17.780Z,996.16
2019-03-13T02:31:17.668Z,996.20
2019-03-13T02:32:33.670Z,996.23
2019-03-13T02:33:17.652Z,996.23
2019-03-13T02:34:19.682Z,996.25
2019-03-13T02:35:17.628Z,996.24
2019-03-13T02:36:18.641Z,996.22
2019-03-13T02:37:17.606Z,996.18
2019-03-13T02:38:17.631Z,996.11
2019-03-13T02:39:17.599Z,996.18
2019-03-13T02:40:17.643Z,996.23
2019-03-13T02:41:17.558Z,996.07
2019-03-13T02:42:17.658Z,996.16
2019-03-13T02:43:17.541Z,996.26
2019-03-13T02:44:17.603Z,996.09
2019-03-13T02:45:17.515Z,996.14
2019-03-13T02:46:17.595Z,996.17
2019-03-13T02:47:19.248Z,996.02
2019-03-13T02:48:17.596Z,996.08
2019-03-13T02:49:17.491Z,996.06
2019-03-13T02:50:17.512Z,996.07
2019-03-13T02:51:17.465Z,996.11
2019-03-13T02:52:17.521Z,996.02
2019-03-13T02:53:17.437Z,996.10
2019-03-13T02:54:17.462Z,996.01
2019-03-13T02:55:17.415Z,996.06
2019-03-13T02:56:17.448Z,996.07
2019-03-13T02:57:17.392Z,996.16
2019-03-13T02:58:17.459Z,996.14
2019-03-13T02:59:17.375Z,996.12
2019-03-13T03:00:17.376Z,996.12
2019-03-13T03:01:17.347Z,996.16
2019-03-13T03:02:17.398Z,996.17
2019-03-13T03:03:17.321Z,996.10
2019-03-13T03:04:17.433Z,996.19
2019-03-13T03:05:17.300Z,996.15
2019-03-13T03:06:17.323Z,996.09
2019-03-13T03:07:17.283Z,996.13
2019-03-13T03:08:17.324Z,996.01
2019-03-13T03:09:17.272Z,996.07
2019-03-13T03:10:17.337Z,996.16
2019-03-13T03:11:17.240Z,996.11
2019-03-13T03:12:17.261Z,996.16
2019-03-13T03:13:17.214Z,996.28
2019-03-13T03:14:17.296Z,996.12
2019-03-13T03:15:17.191Z,996.03
2019-03-13T03:16:17.277Z,996.07
2019-03-13T03:17:17.170Z,996.01
2019-03-13T03:18:17.187Z,995.92
2019-03-13T03:19:17.164Z,995.90
2019-03-13T03:20:17.208Z,996.03
2019-03-13T03:21:17.126Z,996.09
2019-03-13T03:22:17.222Z,996.06
2019-03-13T03:23:17.105Z,996.03
2019-03-13T03:24:17.156Z,996.05
2019-03-13T03:25:17.101Z,996.17
2019-03-13T03:26:17.141Z,996.14
2019-03-13T03:27:17.066Z,996.12
2019-03-13T03:28:17.160Z,996.15
2019-03-13T03:29:17.079Z,996.06
2019-03-13T03:30:17.065Z,996.14
2019-03-13T03:31:17.213Z,996.02
2019-03-13T03:32:17.084Z,996.04
2019-03-13T03:33:16.999Z,996.00
2019-03-13T03:34:17.105Z,995.98
2019-03-13T03:35:16.997Z,996.00
2019-03-13T03:36:17.003Z,995.92
2019-03-13T03:37:16.959Z,995.96
2019-03-13T03:38:17.018Z,996.00
2019-03-13T03:39:16.939Z,995.97
2019-03-13T03:40:21.900Z,996.00
2019-03-13T03:41:17.925Z,996.00
2019-03-13T03:42:16.943Z,996.02
2019-03-13T03:43:16.895Z,996.01
2019-03-13T03:44:16.957Z,995.97
2019-03-13T03:45:16.898Z,995.96
2019-03-13T03:46:16.975Z,996.03
2019-03-13T03:47:16.849Z,996.06
2019-03-13T03:48:16.881Z,996.07
2019-03-13T03:49:16.826Z,996.07
2019-03-13T03:50:17.075Z,995.99
2019-03-13T03:51:16.805Z,996.08
2019-03-13T03:52:16.915Z,996.01
2019-03-13T03:53:16.860Z,995.93
2019-03-13T03:54:16.820Z,996.04
2019-03-13T03:55:16.779Z,996.04
2019-03-13T03:56:16.837Z,996.09
2019-03-13T03:57:16.744Z,995.94
2019-03-13T03:58:16.745Z,996.02
2019-03-13T03:59:16.717Z,996.01
2019-03-13T04:00:16.792Z,996.01
2019-03-13T04:01:16.711Z,995.97
2019-03-13T04:02:17.798Z,995.99
2019-03-13T04:03:16.676Z,996.05
2019-03-13T04:04:24.692Z,996.05
2019-03-13T04:05:16.668Z,995.92
2019-03-13T04:06:23.662Z,995.97
2019-03-13T04:07:16.634Z,995.99
2019-03-13T04:08:17.637Z,996.03
2019-03-13T04:09:16.611Z,996.07
2019-03-13T04:10:16.661Z,996.07
2019-03-13T04:11:16.602Z,995.89
2019-03-13T04:12:16.636Z,995.83
2019-03-13T04:13:16.569Z,995.99
2019-03-13T04:14:16.650Z,996.03
2019-03-13T04:15:16.561Z,996.06
2019-03-13T04:16:16.573Z,996.03
2019-03-13T04:17:16.524Z,996.02
2019-03-13T04:18:16.576Z,996.01
2019-03-13T04:19:16.506Z,996.01
2019-03-13T04:20:16.520Z,996.05
2019-03-13T04:21:16.481Z,996.03
2019-03-13T04:22:16.500Z,996.03
2019-03-13T04:23:16.463Z,996.00
2019-03-13T04:24:16.516Z,996.01
2019-03-13T04:25:16.457Z,995.96
2019-03-13T04:26:16.537Z,995.93
2019-03-13T04:27:16.562Z,995.90
2019-03-13T04:28:16.441Z,995.83
2019-03-13T04:29:16.399Z,995.82
2019-03-13T04:30:16.482Z,995.83
2019-03-13T04:31:16.373Z,995.81
2019-03-13T04:32:16.467Z,995.81
2019-03-13T04:33:16.354Z,995.86
2019-03-13T04:34:16.400Z,995.89
2019-03-13T04:35:16.345Z,995.86
2019-03-13T04:36:16.397Z,995.84
2019-03-13T04:37:16.309Z,995.83
2019-03-13T04:38:16.414Z,995.77
2019-03-13T04:39:16.297Z,995.73
2019-03-13T04:40:16.346Z,995.82
2019-03-13T04:41:16.271Z,995.75
2019-03-13T04:42:16.330Z,995.76
2019-03-13T04:43:16.245Z,995.77
2019-03-13T04:44:16.345Z,995.78
2019-03-13T04:45:16.377Z,995.67
2019-03-13T04:46:16.257Z,995.79
2019-03-13T04:47:16.201Z,995.74
2019-03-13T04:48:16.270Z,995.70
2019-03-13T04:49:16.177Z,995.77
2019-03-13T04:50:18.232Z,995.65
2019-03-13T04:51:16.170Z,995.72
2019-03-13T04:52:16.297Z,995.61
2019-03-13T04:53:16.214Z,995.59
2019-03-13T04:54:18.154Z,995.61
2019-03-13T04:55:16.115Z,995.68
2019-03-13T04:56:16.149Z,995.66
2019-03-13T04:57:16.092Z,995.61
2019-03-13T04:58:16.133Z,995.77
2019-03-13T04:59:16.067Z,995.69
2019-03-13T05:00:16.148Z,995.67
2019-03-13T05:01:16.059Z,995.72
2019-03-13T05:02:16.058Z,995.65
2019-03-13T05:03:16.024Z,995.65
2019-03-13T05:04:16.071Z,995.67
2019-03-13T05:05:16.002Z,995.69
2019-03-13T05:06:16.119Z,995.69
2019-03-13T05:07:15.982Z,995.69
2019-03-13T05:08:15.998Z,995.70
2019-03-13T05:09:15.963Z,995.77
2019-03-13T05:10:16.010Z,995.75
2019-03-13T05:11:15.950Z,995.72
2019-03-13T05:12:16.023Z,995.58
2019-03-13T05:13:15.917Z,995.66
2019-03-13T05:14:15.936Z,995.61
2019-03-13T05:15:15.893Z,995.66
2019-03-13T05:16:15.979Z,995.59
2019-03-13T05:17:15.873Z,995.68
2019-03-13T05:18:15.962Z,995.53
2019-03-13T05:19:15.850Z,995.60
2019-03-13T05:20:15.874Z,995.74
2019-03-13T05:21:15.847Z,995.51
2019-03-13T05:22:15.888Z,995.69
2019-03-13T05:23:15.807Z,995.62
2019-03-13T05:24:15.901Z,995.69
2019-03-13T05:25:18.999Z,995.63
2019-03-13T05:26:15.841Z,995.63
2019-03-13T05:27:15.764Z,995.70
2019-03-13T05:28:15.828Z,995.56
2019-03-13T05:29:15.745Z,995.60
2019-03-13T05:30:15.840Z,995.52
2019-03-13T05:31:15.731Z,995.55
2019-03-13T05:32:15.752Z,995.47
2019-03-13T05:33:15.704Z,995.55
2019-03-13T05:34:15.766Z,995.52
2019-03-13T05:35:15.683Z,995.50
2019-03-13T05:36:17.007Z,995.55
2019-03-13T05:37:15.657Z,995.53
2019-03-13T05:38:17.742Z,995.43
2019-03-13T05:39:15.640Z,995.43
2019-03-13T05:40:15.717Z,995.37
2019-03-13T05:41:15.627Z,995.38
2019-03-13T05:42:15.616Z,995.39
2019-03-13T05:43:15.590Z,995.45
2019-03-13T05:44:15.630Z,995.38
2019-03-13T05:45:15.567Z,995.21
2019-03-13T05:46:15.673Z,995.38
2019-03-13T05:47:15.547Z,995.30
2019-03-13T05:48:15.557Z,995.28
2019-03-13T05:49:15.523Z,995.34
2019-03-13T05:50:15.570Z,995.36
2019-03-13T05:51:15.521Z,995.26
2019-03-13T05:52:15.590Z,995.36
2019-03-13T05:53:15.481Z,995.29
2019-03-13T05:54:15.495Z,995.28
2019-03-13T05:55:15.458Z,995.37
2019-03-13T05:56:15.537Z,995.27
2019-03-13T05:57:15.436Z,995.28
2019-03-13T05:58:15.523Z,995.24
2019-03-13T05:59:15.416Z,995.31
2019-03-13T06:00:15.433Z,995.33
2019-03-13T06:01:15.457Z,995.18
2019-03-13T06:02:15.446Z,995.26
2019-03-13T06:03:15.374Z,995.32
2019-03-13T06:04:15.474Z,995.28
2019-03-13T06:05:15.350Z,995.29
2019-03-13T06:06:15.399Z,995.22
2019-03-13T06:07:15.330Z,995.28
2019-03-13T06:08:18.351Z,995.31
2019-03-13T06:09:15.304Z,995.18
2019-03-13T06:10:15.398Z,995.33
2019-03-13T06:11:15.295Z,995.16
2019-03-13T06:12:15.309Z,995.21
2019-03-13T06:13:15.265Z,995.09
2019-03-13T06:14:15.323Z,995.30
2019-03-13T06:15:15.241Z,995.20
2019-03-13T06:16:15.264Z,995.21
2019-03-13T06:17:15.221Z,995.18
2019-03-13T06:18:15.252Z,995.20
2019-03-13T06:19:15.197Z,995.19
2019-03-13T06:20:15.265Z,995.17
2019-03-13T06:21:15.185Z,995.19
2019-03-13T06:22:15.276Z,995.21
2019-03-13T06:23:15.152Z,995.18
2019-03-13T06:24:22.150Z,995.24
2019-03-13T06:25:15.164Z,995.17
2019-03-13T06:26:17.174Z,995.23
2019-03-13T06:27:15.111Z,995.15
2019-03-13T06:28:15.116Z,995.26
2019-03-13T06:29:15.091Z,995.23
2019-03-13T06:30:15.126Z,995.26
2019-03-13T06:31:15.083Z,995.16
2019-03-13T06:32:15.168Z,995.17
2019-03-13T06:33:15.044Z,995.17
2019-03-13T06:34:15.053Z,995.21
2019-03-13T06:35:15.026Z,995.16
2019-03-13T06:36:15.067Z,995.24
2019-03-13T06:37:15.016Z,995.06
2019-03-13T06:38:15.078Z,995.13
2019-03-13T06:39:14.981Z,995.11
2019-03-13T06:40:14.993Z,995.16
2019-03-13T06:41:14.955Z,995.13
2019-03-13T06:42:15.034Z,995.09
2019-03-13T06:43:14.934Z,995.19
2019-03-13T06:44:15.019Z,995.09
2019-03-13T06:45:14.911Z,995.14
2019-03-13T06:46:14.929Z,995.15
2019-03-13T06:47:14.904Z,995.06
2019-03-13T06:48:14.943Z,995.17
2019-03-13T06:49:14.868Z,995.21
2019-03-13T06:50:14.957Z,995.17
2019-03-13T06:51:14.847Z,995.15
2019-03-13T06:52:14.896Z,995.14
2019-03-13T06:53:14.823Z,995.28
2019-03-13T06:54:14.881Z,995.13
2019-03-13T06:55:14.805Z,995.24
2019-03-13T06:56:14.895Z,995.24
2019-03-13T06:57:14.793Z,995.26
2019-03-13T06:58:14.808Z,995.25
2019-03-13T06:59:14.762Z,995.21
2019-03-13T07:00:14.822Z,995.01
2019-03-13T07:01:14.736Z,995.18
2019-03-13T07:02:14.761Z,995.13
2019-03-13T07:03:14.715Z,995.13
2019-03-13T07:04:14.747Z,995.19
2019-03-13T07:05:14.735Z,995.11
2019-03-13T07:06:14.762Z,995.25
2019-03-13T07:07:14.683Z,995.17
2019-03-13T07:08:14.772Z,995.04
2019-03-13T07:09:14.649Z,995.05
2019-03-13T07:10:15.709Z,995.18
2019-03-13T07:11:14.632Z,995.07
2019-03-13T07:12:15.666Z,995.13
2019-03-13T07:13:14.607Z,994.98
2019-03-13T07:14:14.611Z,995.13
2019-03-13T07:15:14.587Z,995.12
2019-03-13T07:16:14.623Z,995.15
2019-03-13T07:17:14.587Z,995.16
2019-03-13T07:18:14.637Z,995.17
2019-03-13T07:19:14.543Z,995.09
2019-03-13T07:20:14.548Z,995.09
2019-03-13T07:21:14.520Z,995.02
2019-03-13T07:22:14.597Z,995.04
2019-03-13T07:23:14.501Z,994.84
2019-03-13T07:24:14.580Z,995.08
2019-03-13T07:25:14.476Z,994.97
2019-03-13T07:26:14.488Z,995.05
2019-03-13T07:27:14.467Z,994.88
2019-03-13T07:28:14.500Z,994.96
2019-03-13T07:29:14.431Z,994.77
2019-03-13T07:30:14.513Z,994.89
2019-03-13T07:31:14.414Z,994.86
2019-03-13T07:32:14.466Z,994.75
2019-03-13T07:33:14.387Z,994.88
2019-03-13T07:34:14.443Z,994.88
2019-03-13T07:35:14.366Z,994.82
2019-03-13T07:36:14.454Z,994.87
2019-03-13T07:37:14.377Z,994.78
2019-03-13T07:38:15.703Z,994.75
2019-03-13T07:39:14.329Z,994.85
2019-03-13T07:40:14.387Z,994.73
2019-03-13T07:41:14.300Z,994.71
2019-03-13T07:42:14.391Z,994.75
2019-03-13T07:43:14.291Z,994.71
2019-03-13T07:44:14.306Z,994.66
2019-03-13T07:45:14.258Z,994.38
2019-03-13T07:46:14.323Z,994.71
2019-03-13T07:47:14.234Z,994.68
2019-03-13T07:48:14.265Z,994.64
2019-03-13T07:49:14.211Z,994.67
2019-03-13T07:50:14.244Z,994.67
2019-03-13T07:51:14.193Z,994.70
2019-03-13T07:52:14.260Z,994.72
2019-03-13T07:53:14.186Z,994.66
2019-03-13T07:54:14.269Z,994.62
2019-03-13T07:55:14.147Z,994.59
2019-03-13T07:56:21.143Z,994.56
2019-03-13T07:57:14.126Z,994.45
2019-03-13T07:58:15.150Z,994.46
2019-03-13T07:59:14.102Z,994.33
2019-03-13T08:00:14.207Z,994.55
2019-03-13T08:01:14.080Z,994.57
2019-03-13T08:02:14.121Z,994.43
2019-03-13T08:03:14.073Z,994.36
2019-03-13T08:04:14.132Z,994.56
2019-03-13T08:05:14.037Z,994.61
2019-03-13T08:06:14.047Z,994.44
2019-03-13T08:07:14.015Z,994.43
2019-03-13T08:08:14.093Z,994.48
2019-03-13T08:09:13.995Z,994.66
2019-03-13T08:10:14.074Z,994.52
2019-03-13T08:11:13.970Z,994.49
2019-03-13T08:12:13.982Z,994.50
2019-03-13T08:13:14.049Z,994.47
2019-03-13T08:14:13.997Z,994.38
2019-03-13T08:15:13.938Z,994.42
2019-03-13T08:16:14.011Z,994.52
2019-03-13T08:17:13.910Z,994.35
2019-03-13T08:18:13.954Z,994.32
2019-03-13T08:19:13.888Z,994.27
2019-03-13T08:20:13.935Z,994.37
2019-03-13T08:21:13.878Z,994.54
2019-03-13T08:22:13.949Z,994.42
2019-03-13T08:23:13.860Z,994.33
2019-03-13T08:24:13.860Z,994.33
2019-03-13T08:25:13.820Z,994.28
2019-03-13T08:26:13.874Z,994.38
2019-03-13T08:27:13.797Z,994.30
2019-03-13T08:28:13.817Z,994.56
2019-03-13T08:29:13.795Z,994.43
2019-03-13T08:30:13.799Z,994.32
2019-03-13T08:31:13.755Z,994.21
2019-03-13T08:32:13.813Z,994.32
2019-03-13T08:33:13.750Z,994.37
2019-03-13T08:34:13.826Z,994.33
2019-03-13T08:35:13.713Z,994.29
2019-03-13T08:36:13.737Z,994.40
2019-03-13T08:37:13.689Z,994.42
2019-03-13T08:38:14.809Z,994.48
2019-03-13T08:39:13.670Z,994.29
2019-03-13T08:40:21.651Z,994.37
2019-03-13T08:41:13.647Z,994.33
2019-03-13T08:42:13.677Z,994.33
2019-03-13T08:43:13.642Z,994.45
2019-03-13T08:44:13.809Z,994.26
2019-03-13T08:45:13.606Z,994.54
2019-03-13T08:46:13.703Z,994.24
2019-03-13T08:47:13.584Z,994.44
2019-03-13T08:48:13.646Z,994.35
2019-03-13T08:49:13.564Z,994.34
2019-03-13T08:50:13.631Z,994.27
2019-03-13T08:51:13.539Z,994.26
2019-03-13T08:52:13.539Z,994.17
2019-03-13T08:53:13.530Z,994.33
2019-03-13T08:54:13.554Z,994.26
2019-03-13T08:55:13.505Z,994.40
2019-03-13T08:56:13.577Z,994.36
2019-03-13T08:57:13.474Z,994.34
2019-03-13T08:58:13.510Z,994.33
2019-03-13T08:59:13.451Z,994.37
2019-03-13T09:00:13.492Z,994.20
2019-03-13T09:01:13.431Z,994.23
2019-03-13T09:02:13.518Z,994.17
2019-03-13T09:03:13.444Z,994.22
2019-03-13T09:04:13.418Z,994.16
2019-03-13T09:05:13.389Z,994.23
2019-03-13T09:06:13.449Z,994.25
2019-03-13T09:07:13.369Z,994.17
2019-03-13T09:08:13.447Z,994.20
2019-03-13T09:09:13.355Z,994.18
2019-03-13T09:10:13.356Z,994.18
2019-03-13T09:11:13.324Z,994.13
2019-03-13T09:12:13.372Z,994.15
2019-03-13T09:13:13.313Z,994.11
2019-03-13T09:14:13.414Z,994.11
2019-03-13T09:15:13.289Z,993.99
2019-03-13T09:16:13.397Z,994.06
2019-03-13T09:17:13.259Z,993.96
2019-03-13T09:18:13.309Z,994.05
2019-03-13T09:19:13.249Z,994.16
2019-03-13T09:20:13.324Z,994.08
2019-03-13T09:21:13.215Z,994.12
2019-03-13T09:22:13.235Z,994.11
2019-03-13T09:23:13.199Z,994.11
2019-03-13T09:24:14.307Z,994.11
2019-03-13T09:25:13.180Z,994.11
2019-03-13T09:26:21.146Z,994.25
2019-03-13T09:27:13.444Z,994.19
2019-03-13T09:28:21.163Z,993.95
2019-03-13T09:29:13.183Z,994.07
2019-03-13T09:30:20.662Z,994.17
2019-03-13T09:31:13.108Z,994.11
2019-03-13T09:32:14.121Z,994.08
2019-03-13T09:33:13.089Z,994.11
2019-03-13T09:34:13.144Z,994.31
2019-03-13T09:35:13.065Z,994.32
2019-03-13T09:36:13.126Z,994.20
2019-03-13T09:37:13.047Z,994.27
2019-03-13T09:38:13.140Z,994.02
2019-03-13T09:39:13.035Z,994.17
2019-03-13T09:40:13.050Z,994.23
2019-03-13T09:41:13.000Z,994.13
2019-03-13T09:42:13.064Z,994.12
2019-03-13T09:43:12.977Z,994.27
2019-03-13T09:44:13.010Z,994.24
2019-03-13T09:45:12.957Z,994.17
2019-03-13T09:46:12.994Z,994.18
2019-03-13T09:47:12.933Z,994.13
2019-03-13T09:48:13.005Z,994.15
2019-03-13T09:49:14.640Z,994.16
2019-03-13T09:50:12.919Z,994.05
2019-03-13T09:51:12.890Z,994.09
2019-03-13T09:52:12.940Z,994.11
2019-03-13T09:53:12.872Z,994.09
2019-03-13T09:54:12.973Z,993.97
2019-03-13T09:55:12.857Z,994.08
2019-03-13T09:56:12.869Z,994.05
2019-03-13T09:57:12.829Z,994.22
2019-03-13T09:58:12.866Z,994.07
2019-03-13T09:59:12.819Z,994.00
2019-03-13T10:00:12.882Z,994.08
2019-03-13T10:01:12.783Z,994.08
2019-03-13T10:02:12.793Z,993.97
2019-03-13T10:03:12.764Z,994.07
2019-03-13T10:04:12.843Z,994.06
2019-03-13T10:05:12.741Z,993.97
2019-03-13T10:06:12.826Z,994.07
2019-03-13T10:07:12.725Z,994.32
2019-03-13T10:08:12.730Z,994.11
2019-03-13T10:09:12.715Z,993.97
2019-03-13T10:10:12.745Z,994.23
2019-03-13T10:11:12.676Z,994.08
2019-03-13T10:12:20.644Z,993.97
2019-03-13T10:13:12.657Z,994.11
2019-03-13T10:14:16.180Z,994.11
2019-03-13T10:15:12.632Z,994.19
2019-03-13T10:16:20.169Z,994.12
2019-03-13T10:17:12.614Z,994.13
2019-03-13T10:18:13.627Z,994.15
2019-03-13T10:19:12.610Z,994.13
2019-03-13T10:20:12.613Z,994.13
2019-03-13T10:21:12.571Z,994.11
2019-03-13T10:22:12.621Z,994.02
2019-03-13T10:23:12.552Z,994.15
2019-03-13T10:24:12.565Z,994.02
2019-03-13T10:25:12.524Z,994.09
2019-03-13T10:26:12.547Z,994.15
2019-03-13T10:27:12.507Z,994.13
2019-03-13T10:28:12.563Z,994.16
2019-03-13T10:29:12.508Z,994.15
2019-03-13T10:30:12.574Z,994.08
2019-03-13T10:31:12.461Z,994.05
2019-03-13T10:32:12.486Z,994.11
2019-03-13T10:33:12.438Z,994.14
2019-03-13T10:34:12.500Z,994.08
2019-03-13T10:35:12.435Z,994.17
2019-03-13T10:36:12.512Z,994.05
2019-03-13T10:37:12.393Z,994.10
2019-03-13T10:38:14.144Z,994.13
2019-03-13T10:39:12.378Z,994.12
2019-03-13T10:40:12.466Z,994.16
2019-03-13T10:41:12.354Z,994.15
2019-03-13T10:42:12.451Z,994.22
2019-03-13T10:43:12.333Z,994.13
2019-03-13T10:44:12.366Z,994.24
2019-03-13T10:45:12.321Z,994.18
2019-03-13T10:46:12.377Z,994.11
2019-03-13T10:47:12.287Z,994.13
2019-03-13T10:48:12.391Z,994.26
2019-03-13T10:49:12.267Z,994.26
2019-03-13T10:50:12.330Z,994.20
2019-03-13T10:51:12.247Z,994.27
2019-03-13T10:52:12.317Z,994.27
2019-03-13T10:53:12.221Z,994.29
2019-03-13T10:54:12.226Z,994.26
2019-03-13T10:55:12.209Z,994.22
2019-03-13T10:56:12.240Z,994.19
2019-03-13T10:57:12.178Z,994.13
2019-03-13T10:58:13.310Z,994.13
2019-03-13T10:59:12.162Z,994.10
2019-03-13T11:00:15.679Z,994.26
2019-03-13T11:01:12.135Z,994.12
2019-03-13T11:02:19.654Z,994.10
2019-03-13T11:03:12.117Z,994.12
2019-03-13T11:04:12.194Z,994.32
2019-03-13T11:05:12.115Z,994.10
2019-03-13T11:06:12.110Z,994.09
2019-03-13T11:07:12.075Z,994.04
2019-03-13T11:08:12.117Z,994.16
2019-03-13T11:09:12.051Z,994.11
2019-03-13T11:10:12.164Z,994.16
2019-03-13T11:11:12.031Z,994.03
2019-03-13T11:12:12.044Z,994.13
2019-03-13T11:13:12.007Z,994.17
2019-03-13T11:14:15.970Z,994.16
2019-03-13T11:15:11.996Z,994.11
2019-03-13T11:16:12.070Z,994.15
2019-03-13T11:17:11.963Z,994.17
2019-03-13T11:18:11.984Z,994.03
2019-03-13T11:19:11.940Z,994.12
2019-03-13T11:20:12.104Z,994.14
2019-03-13T11:21:11.924Z,994.13
2019-03-13T11:22:12.044Z,993.89
2019-03-13T11:23:11.907Z,994.16
2019-03-13T11:24:11.923Z,994.22
2019-03-13T11:25:11.892Z,994.15
2019-03-13T11:26:11.933Z,993.96
2019-03-13T11:27:11.892Z,994.12
2019-03-13T11:28:11.953Z,994.09
2019-03-13T11:29:11.831Z,994.17
2019-03-13T11:30:11.895Z,994.14
2019-03-13T11:31:11.817Z,994.04
2019-03-13T11:32:11.887Z,994.29
2019-03-13T11:33:11.787Z,994.01
2019-03-13T11:34:11.886Z,993.91
2019-03-13T11:35:11.783Z,993.96
2019-03-13T11:36:11.805Z,993.86
2019-03-13T11:37:11.746Z,993.83
2019-03-13T11:38:11.825Z,993.94
2019-03-13T11:39:11.758Z,993.80
2019-03-13T11:40:11.766Z,993.77
2019-03-13T11:41:11.706Z,993.68
2019-03-13T11:42:11.737Z,993.73
2019-03-13T11:43:11.679Z,993.77
2019-03-13T11:44:12.788Z,993.80
2019-03-13T11:45:11.680Z,993.90
2019-03-13T11:46:11.694Z,993.89
2019-03-13T11:47:11.636Z,993.95
2019-03-13T11:48:19.155Z,993.91
2019-03-13T11:49:11.631Z,993.96
2019-03-13T11:50:12.679Z,993.89
2019-03-13T11:51:11.588Z,994.02
2019-03-13T11:52:11.603Z,993.76
2019-03-13T11:53:11.569Z,993.75
2019-03-13T11:54:11.715Z,993.76
2019-03-13T11:55:11.596Z,993.91
2019-03-13T11:56:11.634Z,993.88
2019-03-13T11:57:11.535Z,993.65
2019-03-13T11:58:11.542Z,993.83
2019-03-13T11:59:11.504Z,993.85
2019-03-13T12:00:11.553Z,993.86
2019-03-13T12:01:11.495Z,993.81
2019-03-13T12:02:11.567Z,993.84
2019-03-13T12:03:11.457Z,993.79
2019-03-13T12:04:11.500Z,993.78
2019-03-13T12:05:11.439Z,993.80
2019-03-13T12:06:11.522Z,993.89
2019-03-13T12:07:11.426Z,993.77
2019-03-13T12:08:11.508Z,993.81
2019-03-13T12:09:11.395Z,993.74
2019-03-13T12:10:11.416Z,993.74
2019-03-13T12:11:11.389Z,993.59
2019-03-13T12:12:11.431Z,993.77
2019-03-13T12:13:11.364Z,993.91
2019-03-13T12:14:11.450Z,993.94
2019-03-13T12:15:11.330Z,993.82
2019-03-13T12:16:11.387Z,993.80
2019-03-13T12:17:11.310Z,993.76
2019-03-13T12:18:11.372Z,993.81
2019-03-13T12:19:11.292Z,993.65
2019-03-13T12:20:11.384Z,993.80
2019-03-13T12:21:11.285Z,993.72
2019-03-13T12:22:11.300Z,993.62
2019-03-13T12:23:11.243Z,993.64
2019-03-13T12:24:11.313Z,993.77
2019-03-13T12:25:11.223Z,993.69
2019-03-13T12:26:11.252Z,993.76
2019-03-13T12:27:11.195Z,993.66
2019-03-13T12:28:11.234Z,993.75